• Join FlightAware (Why Join?)
  • Login
  • US Flag 
05:27PM EDT


 

Airport Tracker/Info


-or-


 

Live Flight TrackerFlight Track Log ✈ SWA3530 ✈ 05-Apr-2014 ✈ KMKE - KFLL

Flight Track Log - Related Links

Times and Time Zones

All times are in EDT time to prevent confusion due to time zone crossing. See the SWA3530 flight status page for this flight to view local times or setup timezone preferences in your user account.

Time Position Orientation Groundspeed Altitude Reporting Facility
EDT Latitude Longitude Course Direction KTS MPH feet Rate Location/Type
07:10AM 42.9667 -87.8833 65° Northeast 154 177 1,500  Level KMKE
07:11AM 42.9842 -87.8308 65° Northeast 239 275 4,200 2,280 Climbing Chicago Center
07:12AM 42.9139 -87.8125 169° South 253 291 6,800 3,060 Climbing Chicago Center
07:13AM 42.8278 -87.8017 175° South 295 339 10,400 2,820 Climbing Chicago Center
07:14AM 42.7278 -87.7922 176° South 358 412 12,500 2,700 Climbing Chicago Center
07:15AM 42.6200 -87.7947 181° South 383 441 15,900 3,000 Climbing Chicago Center
07:16AM 42.5083 -87.7922 179° South 395 455 18,600 2,640 Climbing Chicago Center
07:17AM 42.3919 -87.7919 180° South 410 472 21,300 2,160 Climbing Chicago Center
07:18AM 42.2722 -87.7908 180° South 423 487 23,000 1,740 Climbing Chicago Center
07:19AM 42.1525 -87.7900 180° South 427 491 24,900 2,160 Climbing Chicago Center
07:20AM 42.0167 -87.7892 180° South 437 503 27,400 2,040 Climbing Chicago Center
07:21AM 41.9067 -87.7872 179° South 439 505 29,100 1,620 Climbing Chicago Center
07:22AM 41.7811 -87.7867 180° South 443 510 30,700 1,860 Climbing Chicago Center
07:23AM 41.6433 -87.7847 179° South 446 513 33,000 1,860 Climbing Chicago Center
07:24AM 41.5306 -87.7858 180° South 444 511 34,500 1,380 Climbing Chicago Center
07:25AM 41.4050 -87.7850 180° South 444 511 35,900 1,200 Climbing Chicago Center
07:27AM 41.1647 -87.7822 180° South 447 514 38,000 720 Climbing Indianapolis Center
07:28AM 41.0417 -87.7828 180° South 447 514 38,000  Level Indianapolis Center
07:29AM 40.9203 -87.7806 179° South 446 513 38,000  Level Indianapolis Center
07:30AM 40.7981 -87.7781 179° South 445 512 38,000  Level Indianapolis Center
07:31AM 40.6717 -87.7614 174° South 456 525 38,000 120 Level Indianapolis Center
07:32AM 40.5489 -87.7281 168° South 456 525 38,300 480 Climbing Indianapolis Center
07:33AM 40.4242 -87.6972 169° South 456 525 39,000 300 Climbing Indianapolis Center
07:34AM 40.2989 -87.6656 169° South 457 526 39,000  Level Indianapolis Center
07:35AM 40.1503 -87.6281 169° South 457 526 39,000  Level Indianapolis Center
07:36AM 40.0281 -87.5975 169° South 456 525 39,000  Level Indianapolis Center
07:37AM 39.9036 -87.5675 170° South 456 525 39,000  Level Indianapolis Center
07:38AM 39.7806 -87.5361 169° South 453 521 39,000  Level Indianapolis Center
07:39AM 39.6581 -87.5061 169° South 453 521 39,000  Level Indianapolis Center
07:40AM 39.5331 -87.4767 170° South 454 522 39,000  Level Indianapolis Center
07:41AM 39.4081 -87.4458 169° South 455 524 39,000  Level Indianapolis Center
07:42AM 39.2828 -87.4158 169° South 457 526 39,000  Level Indianapolis Center
07:43AM 39.1561 -87.3842 169° South 460 529 39,000  Level Indianapolis Center
07:44AM 39.0119 -87.3503 170° South 460 529 39,000  Level Indianapolis Center
07:45AM 38.8847 -87.3181 169° South 461 531 39,000  Level Indianapolis Center
07:46AM 38.7583 -87.2883 170° South 461 531 39,000  Level Indianapolis Center
07:47AM 38.6317 -87.2589 170° South 461 531 39,000  Level Indianapolis Center
07:48AM 38.5064 -87.2289 169° South 461 531 39,000  Level Indianapolis Center
07:49AM 38.3764 -87.1975 169° South 461 531 39,000  Level Indianapolis Center
07:50AM 38.2514 -87.1681 170° South 461 531 39,000  Level Indianapolis Center
07:51AM 38.1125 -87.1361 170° South 458 527 39,000  Level Indianapolis Center
07:52AM 37.9875 -87.1072 170° South 457 526 39,000  Level Indianapolis Center
07:53AM 37.8617 -87.0781 170° South 457 526 39,000  Level Indianapolis Center
07:54AM 37.7367 -87.0483 169° South 457 526 39,000  Level Indianapolis Center
07:55AM 37.6111 -87.0186 169° South 457 526 39,000  Level Indianapolis Center
07:56AM 37.4814 -86.9900 170° South 456 525 39,000  Level Indianapolis Center
07:57AM 37.3564 -86.9606 169° South 456 525 39,000  Level Indianapolis Center
07:58AM 37.2306 -86.9314 170° South 455 524 39,000  Level Indianapolis Center
07:59AM 37.1047 -86.9028 170° South 455 524 39,000  Level Indianapolis Center
08:00AM 36.9775 -86.8739 170° South 456 525 39,000  Level Indianapolis Center
08:01AM 36.8500 -86.8444 170° South 457 526 39,000  Level Indianapolis Center
08:02AM 36.7206 -86.8153 170° South 463 533 39,000  Level Indianapolis Center
08:03AM 36.5897 -86.7861 170° South 466 536 39,000  Level Indianapolis Center
08:04AM 36.4586 -86.7556 169° South 467 537 39,000  Level Indianapolis Center
08:06AM 36.3228 -86.7250 170° South 472 543 39,000  Level Indianapolis Center
08:07AM 36.1881 -86.6969 170° South 473 544 39,000  Level Indianapolis Center
08:08AM 36.0550 -86.6456 163° South 496 571 39,000  Level Indianapolis Center
08:09AM 35.9236 -86.5794 158° South 501 577 39,000  Level Indianapolis Center
08:10AM 35.7914 -86.5142 158° South 502 578 39,000  Level Indianapolis Center
08:11AM 35.6600 -86.4497 158° South 504 580 39,000  Level Indianapolis Center
08:12AM 35.4853 -86.3636 158° South 504 580 39,000  Level Memphis Center
08:13AM 35.3533 -86.2992 158° South 504 580 39,000  Level Memphis Center
08:14AM 35.2222 -86.2344 158° South 504 580 39,000  Level Memphis Center
08:15AM 35.1008 -86.1758 158° South 504 580 39,000  Level Memphis Center
08:16AM 34.9697 -86.1128 158° South 503 579 39,000  Level Memphis Center
08:17AM 34.8403 -86.0494 158° South 504 580 39,000  Level Memphis Center
08:18AM 34.7083 -85.9858 158° South 503 579 39,000  Level Memphis Center
08:19AM 34.5772 -85.9208 158° South 507 583 39,000  Level Atlanta Center
08:20AM 34.4467 -85.8600 159° South 507 583 39,000  Level Atlanta Center
08:21AM 34.3119 -85.7967 159° South 502 578 39,000  Level Atlanta Center
08:22AM 34.1811 -85.7364 159° South 496 571 39,000  Level Atlanta Center
08:23AM 34.0506 -85.6786 160° South 496 571 39,000  Level Atlanta Center
08:24AM 33.9239 -85.6161 158° South 491 565 39,000  Level Atlanta Center
08:25AM 33.7953 -85.5561 159° South 491 565 39,000  Level Atlanta Center
08:26AM 33.6667 -85.4939 158° South 496 571 39,000  Level Atlanta Center
08:27AM 33.5400 -85.4369 159° South 496 571 39,000  Level Atlanta Center
08:28AM 33.4092 -85.3778 159° South 496 571 39,000  Level Atlanta Center
08:29AM 33.2783 -85.3161 158° South 501 577 39,000  Level Atlanta Center
08:30AM 33.1475 -85.2569 159° South 501 577 39,000  Level Atlanta Center
08:31AM 33.0292 -85.1958 157° South 511 588 39,000  Level Atlanta Center
08:32AM 32.8981 -85.1497 164° South 506 582 39,000  Level Atlanta Center
08:33AM 32.7628 -85.1036 164° South 499 574 39,000  Level Atlanta Center
08:34AM 32.6336 -85.0600 164° South 492 566 39,000  Level Atlanta Center
08:35AM 32.5067 -85.0192 165° South 492 566 39,000  Level Atlanta Center
08:36AM 32.3714 -84.9733 164° South 492 566 39,000  Level Atlanta Center
08:37AM 32.2275 -84.9300 166° South 486 559 39,000  Level Atlanta Center
08:38AM 32.0906 -84.8789 162° South 486 559 39,000  Level Jacksonville Center
08:39AM 31.9719 -84.8394 164° South 496 571 39,000  Level Jacksonville Center
08:40AM 31.8328 -84.7950 165° South 485 558 39,000  Level Jacksonville Center
08:41AM 31.7019 -84.7533 165° South 485 558 39,000  Level Jacksonville Center
08:42AM 31.5731 -84.7092 164° South 480 552 39,000  Level Jacksonville Center
08:43AM 31.4422 -84.6678 165° South 485 558 39,000  Level Jacksonville Center
08:44AM 31.3133 -84.6239 164° South 485 558 39,000  Level Jacksonville Center
08:45AM 31.1844 -84.5803 164° South 485 558 39,000  Level Jacksonville Center
08:46AM 31.0536 -84.5367 164° South 490 564 39,000  Level Jacksonville Center
08:47AM 30.9203 -84.4933 164° South 490 564 39,000  Level Jacksonville Center
08:48AM 30.7894 -84.4522 165° South 490 564 39,000  Level Jacksonville Center
08:49AM 30.6564 -84.4092 164° South 490 564 39,000  Level Jacksonville Center
08:50AM 30.5400 -84.3614 161° South 490 564 39,000  Level Jacksonville Center
08:51AM 30.4156 -84.2850 152° Southeast 501 577 39,000  Level Jacksonville Center
08:52AM 30.2892 -84.2011 150° Southeast 511 588 39,000  Level Jacksonville Center
08:53AM 30.1667 -84.1131 148° Southeast 511 588 39,000  Level Jacksonville Center
08:54AM 30.0444 -84.0228 147° Southeast 521 600 39,000  Level Jacksonville Center
08:55AM 29.9242 -83.9328 147° Southeast 521 600 39,000  Level Jacksonville Center
08:56AM 29.8017 -83.8428 147° Southeast 521 600 39,000  Level Jacksonville Center
08:57AM 29.6667 -83.7436 147° Southeast 521 600 39,000  Level Jacksonville Center
08:58AM 29.5439 -83.6564 148° Southeast 521 600 39,000  Level Jacksonville Center
08:59AM 29.4233 -83.5650 147° Southeast 521 600 39,000  Level Jacksonville Center
09:00AM 29.3028 -83.4783 148° Southeast 521 600 39,000  Level Jacksonville Center
09:01AM 29.1819 -83.3872 147° Southeast 521 600 39,000  Level Jacksonville Center
09:02AM 29.0592 -83.3011 148° Southeast 521 600 39,000  Level Jacksonville Center
09:03AM 28.9383 -83.2128 147° Southeast 521 600 39,000  Level Jacksonville Center
09:04AM 28.8156 -83.1272 149° Southeast 521 600 39,000  Level Jacksonville Center
09:05AM 28.6944 -83.0369 147° Southeast 521 600 39,000  Level Jacksonville Center
09:06AM 28.5736 -82.9494 148° Southeast 521 600 39,000 -360 Level Jacksonville Center
09:07AM 28.4589 -82.8547 144° Southeast 521 600 38,300 -900 Descending Jacksonville Center
09:08AM 28.3961 -82.7061 116° Southeast 503 579 37,300 -660 Descending Jacksonville Center
09:09AM 28.3311 -82.5647 118° Southeast 494 568 37,000 -120 Descending Jacksonville Center
09:11AM 28.0453 -82.5186 172° South 459 528 37,000  Level Miami Center
09:12AM 27.9144 -82.4981 172° South 475 547 37,000  Level Miami Center
09:13AM 27.7828 -82.4517 163° South 491 565 37,000  Level Miami Center
09:14AM 27.6636 -82.4058 161° South 491 565 37,000 -180 Level Miami Center
09:15AM 27.5289 -82.3267 152° Southeast 496 571 36,700 -660 Descending Miami Center
09:16AM 27.4094 -82.2322 145° Southeast 512 589 35,700 -1,560 Descending Miami Center
09:17AM 27.2917 -82.1381 145° Southeast 521 600 33,600 -2,100 Descending Miami Center
09:18AM 27.1864 -82.0539 145° Southeast 524 603 31,500 -2,340 Descending Miami Center
09:19AM 27.0644 -81.9553 144° Southeast 508 585 29,000 -2,220 Descending Miami Center
09:20AM 26.9617 -81.8550 139° Southeast 496 571 27,100 -1,860 Descending Miami Center
09:21AM 26.8669 -81.7556 137° Southeast 483 556 25,300 -1,800 Descending Miami Center
09:22AM 26.7719 -81.6611 138° Southeast 468 539 23,600 -1,860 Descending Miami Center
09:23AM 26.6892 -81.5717 136° Southeast 462 532 21,600 -2,340 Descending Miami Center
09:24AM 26.5925 -81.4678 136° Southeast 440 506 19,000 -2,340 Descending Miami Center
09:25AM 26.5156 -81.3883 137° Southeast 429 494 17,000 -2,160 Descending Miami Center
09:26AM 26.4325 -81.3039 138° Southeast 409 471 14,700 -2,280 Descending Miami Center
09:27AM 26.3556 -81.2269 138° Southeast 397 457 12,500 -2,100 Descending Miami Center
09:28AM 26.2744 -81.1406 136° Southeast 369 425 10,600 -1,680 Descending Miami Center
09:28AM 26.2542 -81.1258 147° Southeast 352 405 10,500 -720 Descending Miami Center
09:29AM 26.2161 -81.0667 126° Southeast 349 402 9,900 -1,140 Descending Miami Center
09:30AM 26.1789 -80.9819 116° Southeast 310 357 8,500 -1,380 Descending Miami Center
09:30AM 26.1750 -80.9728 115° Southeast 286 329 8,300 -900 Descending Miami Center
09:31AM 26.1358 -80.8811 115° Southeast 285 328 7,400 -780 Descending Miami Center
09:32AM 26.1144 -80.8203 111° Southeast 288 331 6,900 -720 Descending Miami Center
09:33AM 26.0872 -80.7406 111° Southeast 282 325 6,200 -720 Descending Miami Center
09:33AM 26.0836 -80.7197 101° East 266 306 6,000 -240 Descending Miami Center
09:34AM 26.0850 -80.6667 88° East 260 299 6,000  Level Miami Center
09:34AM 26.0814 -80.6481 102° East 205 236 6,000 -120 Level Miami Center
09:35AM 26.0825 -80.6042 88° East 229 264 5,900  Descending Miami Center
09:35AM 26.0808 -80.5925 99° East 185 213 6,000 60 Climbing Miami Center
09:36AM 26.0800 -80.5439 91° East 200 230 6,000  Level Miami Center
09:36AM 26.0761 -80.5322 110° East 192 221 6,000 -600 Level Miami Center
09:37AM 26.0792 -80.4861 86° East 188 216 5,400 -900 Descending Miami Center
09:37AM 26.0756 -80.4628 100° East 198 228 5,000 -1,020 Descending Miami Center
09:38AM 26.0786 -80.4281 84° East 188 216 4,400 -1,020 Descending Miami Center
09:39AM 26.0772 -80.4028 93° East 192 221 4,000 -960 Descending Miami Center
09:40AM 26.0742 -80.3472 93° East 176 203 3,100 -960 Descending Miami Center
09:40AM 26.0756 -80.2964 88° East 179 206 2,200 -1,020 Descending Miami Center
09:41AM 26.0747 -80.2383 91° East 171 197 1,200 -840 Descending Miami Center
09:42AM 26.0736 -80.1944 92° East 137 158 500 -720 Descending Miami Center
09:44AM 26.0667 -80.1500 180° South  Level FlightAware Approximate
09:51AM 26.0726 -80.1527 180° South  Level Estimated